createdAt,value
2016-03-09T00:00:11.112Z,709.55
2016-03-09T00:00:25.628Z,709.56
2016-03-09T00:00:39.941Z,709.52
2016-03-09T00:00:54.222Z,709.54
2016-03-09T00:01:08.506Z,709.53
2016-03-09T00:01:22.444Z,709.51
2016-03-09T00:01:36.756Z,709.54
2016-03-09T00:01:51.444Z,709.48
2016-03-09T00:02:06.039Z,709.54
2016-03-09T00:02:20.711Z,709.53
2016-03-09T00:02:35.367Z,709.54
2016-03-09T00:02:49.805Z,709.55
2016-03-09T00:03:04.104Z,709.54
2016-03-09T00:03:18.432Z,709.53
2016-03-09T00:03:32.041Z,709.55
2016-03-09T00:03:46.229Z,709.5
2016-03-09T00:04:00.842Z,709.53
2016-03-09T00:04:14.702Z,709.54
2016-03-09T00:04:29.217Z,709.5
2016-03-09T00:04:43.530Z,709.49
2016-03-09T00:04:58.032Z,709.47
2016-03-09T00:05:12.500Z,709.51
2016-03-09T00:05:26.954Z,709.52
2016-03-09T00:05:41.594Z,709.44
2016-03-09T00:05:56.094Z,709.47
2016-03-09T00:06:10.519Z,709.48
2016-03-09T00:06:24.066Z,709.5
2016-03-09T00:06:52.503Z,709.5
2016-03-09T00:07:21.021Z,709.53
2016-03-09T00:07:35.412Z,709.52
2016-03-09T00:07:51.255Z,709.53
2016-03-09T00:08:05.930Z,709.49
2016-03-09T00:08:20.368Z,709.52
2016-03-09T00:08:34.649Z,709.48
2016-03-09T00:08:49.087Z,709.55
2016-03-09T00:09:02.590Z,709.53
2016-03-09T00:09:17.105Z,709.55
2016-03-09T00:09:31.480Z,709.5
2016-03-09T00:09:45.980Z,709.51
2016-03-09T00:10:00.264Z,709.52
2016-03-09T00:10:14.843Z,709.51
2016-03-09T00:10:29.327Z,709.54
2016-03-09T00:10:42.624Z,709.5
2016-03-09T00:10:57.139Z,709.53
2016-03-09T00:11:11.313Z,709.51
2016-03-09T00:11:24.688Z,709.51
2016-03-09T00:11:39.110Z,709.54
2016-03-09T00:11:53.766Z,709.52
2016-03-09T00:12:07.926Z,709.51
2016-03-09T00:12:22.082Z,709.54
2016-03-09T00:12:40.066Z,709.51
2016-03-09T00:12:54.598Z,709.56
2016-03-09T00:13:09.147Z,709.52
2016-03-09T00:13:23.632Z,709.5
2016-03-09T00:13:38.304Z,709.51
2016-03-09T00:13:52.851Z,709.51
2016-03-09T00:14:07.228Z,709.52
2016-03-09T00:14:21.712Z,709.51
2016-03-09T00:14:36.118Z,709.52
2016-03-09T00:14:49.837Z,709.51
2016-03-09T00:15:04.981Z,709.51
2016-03-09T00:15:19.340Z,709.45
2016-03-09T00:15:34.074Z,709.51
2016-03-09T00:16:02.515Z,709.49
2016-03-09T00:16:16.780Z,709.53
2016-03-09T00:16:31.296Z,709.52
2016-03-09T00:16:45.655Z,709.52
2016-03-09T00:17:14.001Z,709.49
2016-03-09T00:17:28.236Z,709.44
2016-03-09T00:17:42.564Z,709.42
2016-03-09T00:18:10.910Z,709.47
2016-03-09T00:18:25.301Z,709.49
2016-03-09T00:18:39.723Z,709.47
2016-03-09T00:18:54.020Z,709.42
2016-03-09T00:19:07.601Z,709.44
2016-03-09T00:19:21.960Z,709.48
2016-03-09T00:19:36.554Z,709.36
2016-03-09T00:19:50.867Z,709.47
2016-03-09T00:20:05.322Z,709.43
2016-03-09T00:20:19.572Z,709.44
2016-03-09T00:20:33.962Z,709.39
2016-03-09T00:21:02.637Z,709.39
2016-03-09T00:21:17.043Z,709.39
2016-03-09T00:21:31.372Z,709.42
2016-03-09T00:21:45.793Z,709.44
2016-03-09T00:22:00.155Z,709.42
2016-03-09T00:22:13.530Z,709.43
2016-03-09T00:22:28.233Z,709.43
2016-03-09T00:22:42.608Z,709.42
2016-03-09T00:22:56.999Z,709.41
2016-03-09T00:23:11.205Z,709.38
2016-03-09T00:23:24.955Z,709.44
2016-03-09T00:23:38.611Z,709.45
2016-03-09T00:23:52.939Z,709.45
2016-03-09T00:24:07.114Z,709.5
2016-03-09T00:24:20.708Z,709.37
2016-03-09T00:24:34.411Z,709.42
2016-03-09T00:24:52.301Z,709.38
2016-03-09T00:25:06.820Z,709.38
2016-03-09T00:25:21.258Z,709.36
2016-03-09T00:25:38.711Z,709.35
2016-03-09T00:25:52.992Z,709.37
2016-03-09T00:26:07.464Z,709.29
2016-03-09T00:26:22.089Z,709.34
2016-03-09T00:26:36.761Z,709.4
2016-03-09T00:26:51.104Z,709.37
2016-03-09T00:27:05.575Z,709.27
2016-03-09T00:27:19.888Z,709.36
2016-03-09T00:27:34.091Z,709.32
2016-03-09T00:28:17.234Z,709.4
2016-03-09T00:28:32.219Z,709.4
2016-03-09T00:28:47.000Z,709.33
2016-03-09T00:29:00.659Z,709.35
2016-03-09T00:29:14.378Z,709.3
2016-03-09T00:29:28.940Z,709.33
2016-03-09T00:29:43.315Z,709.24
2016-03-09T00:29:56.956Z,709.34
2016-03-09T00:30:11.224Z,709.29
2016-03-09T00:30:25.505Z,709.27
2016-03-09T00:30:39.708Z,709.25
2016-03-09T00:30:54.521Z,709.27
2016-03-09T00:31:09.098Z,709.22
2016-03-09T00:31:23.373Z,709.24
2016-03-09T00:31:37.733Z,709.32
2016-03-09T00:31:52.029Z,709.26
2016-03-09T00:32:06.298Z,709.26
2016-03-09T00:32:23.829Z,709.31
2016-03-09T00:32:38.095Z,709.33
2016-03-09T00:32:52.361Z,709.28
2016-03-09T00:33:06.598Z,709.27
2016-03-09T00:33:21.160Z,709.24
2016-03-09T00:33:35.285Z,709.23
2016-03-09T00:33:49.879Z,709.26
2016-03-09T00:34:04.381Z,709.18
2016-03-09T00:34:18.662Z,709.25
2016-03-09T00:34:33.334Z,709.15
2016-03-09T00:34:46.975Z,709.13
2016-03-09T00:35:01.619Z,709.21
2016-03-09T00:35:15.290Z,709.14
2016-03-09T00:35:29.525Z,709.16
2016-03-09T00:35:43.915Z,709.2
2016-03-09T00:35:58.259Z,709.15
2016-03-09T00:36:12.653Z,709.09
2016-03-09T00:36:27.059Z,709.09
2016-03-09T00:36:41.543Z,709.1
2016-03-09T00:36:56.137Z,709.1
2016-03-09T00:37:10.499Z,709
2016-03-09T00:37:24.405Z,709.05
2016-03-09T00:37:39.124Z,709.01
2016-03-09T00:37:53.530Z,709.09
2016-03-09T00:38:08.470Z,709.05
2016-03-09T00:38:23.017Z,709.09
2016-03-09T00:38:37.298Z,709.09
2016-03-09T00:38:51.705Z,709.1
2016-03-09T00:39:06.098Z,709.13
2016-03-09T00:39:20.567Z,709.09
2016-03-09T00:39:35.051Z,709.15
2016-03-09T00:39:49.536Z,709.13
2016-03-09T00:40:04.163Z,709.13
2016-03-09T00:40:18.757Z,709.19
2016-03-09T00:40:32.944Z,709.21
2016-03-09T00:40:47.475Z,709.12
2016-03-09T00:41:02.025Z,709.18
2016-03-09T00:41:16.306Z,709.15
2016-03-09T00:41:33.838Z,709.11
2016-03-09T00:41:48.463Z,709.19
2016-03-09T00:42:03.106Z,709.12
2016-03-09T00:42:17.450Z,709.1
2016-03-09T00:42:32.294Z,709.11
2016-03-09T00:43:01.546Z,709.08
2016-03-09T00:43:15.593Z,709.12
2016-03-09T00:43:29.952Z,709.11
2016-03-09T00:43:44.061Z,709.14
2016-03-09T00:43:58.499Z,709.12
2016-03-09T00:44:12.799Z,709.13
2016-03-09T00:44:27.330Z,709.1
2016-03-09T00:44:41.752Z,709.14
2016-03-09T00:44:56.346Z,709.14
2016-03-09T00:45:10.989Z,709.12
2016-03-09T00:45:25.161Z,709.18
2016-03-09T00:45:39.380Z,709.06
2016-03-09T00:45:53.739Z,709.11
2016-03-09T00:46:11.194Z,709.13
2016-03-09T00:46:25.429Z,709.16
2016-03-09T00:46:39.851Z,709.08
2016-03-09T00:47:25.510Z,709.04
2016-03-09T00:47:39.838Z,709.13
2016-03-09T00:47:53.776Z,709.1
2016-03-09T00:48:07.824Z,709.04
2016-03-09T00:48:22.059Z,708.99
2016-03-09T00:48:35.856Z,708.97
2016-03-09T00:48:50.324Z,709.06
2016-03-09T00:49:03.563Z,709.01
2016-03-09T00:49:23.922Z,709.03
2016-03-09T00:49:38.828Z,709.09
2016-03-09T00:50:10.127Z,709.06
2016-03-09T00:50:24.315Z,709.13
2016-03-09T00:50:38.815Z,709.09
2016-03-09T00:50:53.268Z,709.08
2016-03-09T00:51:08.224Z,709.1
2016-03-09T00:51:22.693Z,709.1
2016-03-09T00:51:36.896Z,709.02
2016-03-09T00:52:05.773Z,709.07
2016-03-09T00:52:20.148Z,709.1
2016-03-09T00:52:34.632Z,709.07
2016-03-09T00:52:49.289Z,708.99
2016-03-09T00:53:03.807Z,708.97
2016-03-09T00:53:17.729Z,709.01
2016-03-09T00:53:31.542Z,709.02
2016-03-09T00:53:46.026Z,708.97
2016-03-09T00:54:00.295Z,709.01
2016-03-09T00:54:14.466Z,708.98
2016-03-09T00:54:28.888Z,708.96
2016-03-09T00:54:43.295Z,708.98
2016-03-09T00:54:57.591Z,709
2016-03-09T00:55:12.313Z,709
2016-03-09T00:55:40.829Z,709.04
2016-03-09T00:55:55.141Z,708.9
2016-03-09T00:56:10.190Z,708.94
2016-03-09T00:56:24.440Z,709.06
2016-03-09T00:56:38.643Z,708.97
2016-03-09T00:57:09.318Z,708.95
2016-03-09T00:57:23.381Z,708.92
2016-03-09T00:57:37.521Z,708.9
2016-03-09T00:57:51.474Z,708.9
2016-03-09T00:58:05.806Z,708.86
2016-03-09T00:58:20.259Z,708.9
2016-03-09T00:58:34.415Z,708.88
2016-03-09T00:59:21.026Z,708.86
2016-03-09T00:59:35.214Z,708.89
2016-03-09T00:59:49.058Z,708.92
2016-03-09T01:00:02.982Z,708.86
2016-03-09T01:00:16.904Z,708.95
2016-03-09T01:00:45.107Z,708.83
2016-03-09T01:01:13.126Z,708.88
2016-03-09T01:01:27.064Z,708.9
2016-03-09T01:01:40.985Z,708.88
2016-03-09T01:01:55.142Z,708.85
2016-03-09T01:02:12.206Z,709.02
2016-03-09T01:02:26.128Z,708.97
2016-03-09T01:02:39.956Z,708.95
2016-03-09T01:02:54.394Z,708.91
2016-03-09T01:03:08.787Z,708.96
2016-03-09T01:03:22.881Z,708.91
2016-03-09T01:03:36.725Z,708.89
2016-03-09T01:03:50.475Z,708.91
2016-03-09T01:04:18.556Z,708.9
2016-03-09T01:04:32.822Z,708.9
2016-03-09T01:04:47.150Z,708.91
2016-03-09T01:05:01.121Z,708.91
2016-03-09T01:05:15.168Z,708.95
2016-03-09T01:05:29.543Z,708.87
2016-03-09T01:05:43.090Z,708.85
2016-03-09T01:05:57.610Z,708.85
2016-03-09T01:06:11.409Z,708.82
2016-03-09T01:06:25.330Z,708.96
2016-03-09T01:07:07.448Z,708.86
2016-03-09T01:07:21.245Z,708.91
2016-03-09T01:07:38.698Z,708.92
2016-03-09T01:07:52.526Z,708.89
2016-03-09T01:08:34.372Z,708.86
2016-03-09T01:08:54.965Z,708.94
2016-03-09T01:09:23.046Z,708.91
2016-03-09T01:09:37.093Z,708.9
2016-03-09T01:09:50.796Z,708.86
2016-03-09T01:10:05.003Z,708.87
2016-03-09T01:10:19.862Z,708.79
2016-03-09T01:10:34.815Z,708.78
2016-03-09T01:10:51.721Z,708.81
2016-03-09T01:11:19.552Z,708.84
2016-03-09T01:11:33.349Z,708.84
2016-03-09T01:12:01.976Z,708.78
2016-03-09T01:12:15.633Z,708.88
2016-03-09T01:12:29.164Z,708.78
2016-03-09T01:12:42.961Z,708.84
2016-03-09T01:12:56.961Z,708.8
2016-03-09T01:13:11.026Z,708.86
2016-03-09T01:13:24.776Z,708.8
2016-03-09T01:14:06.357Z,708.72
2016-03-09T01:14:19.982Z,708.81
2016-03-09T01:14:33.482Z,708.75
2016-03-09T01:14:47.498Z,708.83
2016-03-09T01:15:01.875Z,708.76
2016-03-09T01:15:16.094Z,708.78
2016-03-09T01:15:44.328Z,708.77
2016-03-09T01:15:57.734Z,708.8
2016-03-09T01:16:25.581Z,708.82
2016-03-09T01:16:53.144Z,708.83
2016-03-09T01:17:06.678Z,708.79
2016-03-09T01:17:34.412Z,708.79
2016-03-09T01:17:47.865Z,708.7
2016-03-09T01:18:02.367Z,708.76
2016-03-09T01:18:15.852Z,708.68
2016-03-09T01:18:29.242Z,708.79
2016-03-09T01:18:45.649Z,708.7
2016-03-09T01:19:30.261Z,708.79
2016-03-09T01:20:07.325Z,708.72
2016-03-09T01:20:35.810Z,708.69
2016-03-09T01:20:49.669Z,708.79
2016-03-09T01:21:04.142Z,708.81
2016-03-09T01:21:18.017Z,708.75
2016-03-09T01:21:46.204Z,708.76
2016-03-09T01:22:27.910Z,708.76
2016-03-09T01:22:44.300Z,708.72
2016-03-09T01:22:58.300Z,708.76
2016-03-09T01:23:11.725Z,708.73
2016-03-09T01:23:32.209Z,708.75
2016-03-09T01:23:59.775Z,708.72
2016-03-09T01:24:13.587Z,708.69
2016-03-09T01:24:30.087Z,708.73
2016-03-09T01:24:46.712Z,708.69
2016-03-09T01:25:00.589Z,708.76
2016-03-09T01:25:14.293Z,708.62
2016-03-09T01:25:28.480Z,708.68
2016-03-09T01:26:29.874Z,708.64
2016-03-09T01:26:43.530Z,708.69
2016-03-09T01:27:11.611Z,708.65
2016-03-09T01:27:25.049Z,708.73
2016-03-09T01:27:38.517Z,708.72
2016-03-09T01:28:51.863Z,708.66
2016-03-09T01:29:05.757Z,708.66
2016-03-09T01:29:19.538Z,708.54
2016-03-09T01:29:47.397Z,708.63
2016-03-09T01:30:01.415Z,708.67
2016-03-09T01:30:16.462Z,708.59
2016-03-09T01:30:30.134Z,708.62
2016-03-09T01:30:47.134Z,708.64
2016-03-09T01:31:01.278Z,708.62
2016-03-09T01:31:18.403Z,708.59
2016-03-09T01:31:46.435Z,708.51
2016-03-09T01:31:59.655Z,708.57
2016-03-09T01:32:17.296Z,708.58
2016-03-09T01:32:31.812Z,708.52
2016-03-09T01:32:48.608Z,708.51
2016-03-09T01:33:02.205Z,708.6
2016-03-09T01:33:15.908Z,708.49
2016-03-09T01:33:44.033Z,708.54
2016-03-09T01:34:04.239Z,708.55
2016-03-09T01:34:32.396Z,708.46
2016-03-09T01:35:00.429Z,708.53
2016-03-09T01:36:38.104Z,708.49
2016-03-09T01:36:52.948Z,708.55
2016-03-09T01:37:06.888Z,708.43
2016-03-09T01:37:51.919Z,708.56
2016-03-09T01:38:05.484Z,708.61
2016-03-09T01:38:22.531Z,708.57
2016-03-09T01:38:53.624Z,708.47
2016-03-09T01:39:11.314Z,708.55
2016-03-09T01:39:25.064Z,708.53
2016-03-09T01:39:39.439Z,708.51
2016-03-09T01:39:56.705Z,708.48
2016-03-09T01:40:10.801Z,708.52
2016-03-09T01:40:24.879Z,708.52
2016-03-09T01:40:39.020Z,708.5
2016-03-09T01:40:53.161Z,708.51
2016-03-09T01:41:07.461Z,708.46
2016-03-09T01:41:21.648Z,708.5
2016-03-09T01:41:49.554Z,708.55
2016-03-09T01:42:06.432Z,708.54
2016-03-09T01:42:23.682Z,708.54
2016-03-09T01:42:37.682Z,708.45
2016-03-09T01:42:53.120Z,708.48
2016-03-09T01:43:07.263Z,708.46
2016-03-09T01:43:21.248Z,708.47
2016-03-09T01:43:35.685Z,708.47
2016-03-09T01:44:03.781Z,708.51
2016-03-09T01:44:18.328Z,708.46
2016-03-09T01:44:32.703Z,708.41
2016-03-09T01:44:46.531Z,708.43
2016-03-09T01:45:00.472Z,708.41
2016-03-09T01:45:14.706Z,708.34
2016-03-09T01:45:29.206Z,708.43
2016-03-09T01:45:43.893Z,708.36
2016-03-09T01:45:58.050Z,708.4
2016-03-09T01:46:12.552Z,708.42
2016-03-09T01:46:26.645Z,708.37
2016-03-09T01:46:41.083Z,708.42
2016-03-09T01:46:55.208Z,708.43
2016-03-09T01:47:09.103Z,708.41
2016-03-09T01:47:23.243Z,708.39
2016-03-09T01:47:37.728Z,708.46
2016-03-09T01:47:51.931Z,708.38
2016-03-09T01:48:05.620Z,708.45
2016-03-09T01:48:19.683Z,708.4
2016-03-09T01:48:34.198Z,708.42
2016-03-09T01:49:03.153Z,708.39
2016-03-09T01:49:31.544Z,708.41
2016-03-09T01:49:46.169Z,708.37
2016-03-09T01:50:29.110Z,708.34
2016-03-09T01:50:42.985Z,708.25
2016-03-09T01:50:57.813Z,708.3
2016-03-09T01:51:14.925Z,708.4
2016-03-09T01:51:29.409Z,708.24
2016-03-09T01:51:57.722Z,708.29
2016-03-09T01:52:25.756Z,708.35
2016-03-09T01:52:40.287Z,708.26
2016-03-09T01:52:57.584Z,708.34
2016-03-09T01:53:12.462Z,708.29
2016-03-09T01:53:26.540Z,708.33
2016-03-09T01:53:40.462Z,708.3
2016-03-09T01:53:55.275Z,708.31
2016-03-09T01:54:08.714Z,708.33
2016-03-09T01:54:22.808Z,708.31
2016-03-09T01:54:36.761Z,708.31
2016-03-09T01:54:50.917Z,708.27
2016-03-09T01:55:05.155Z,708.19
2016-03-09T01:55:50.452Z,708.29
2016-03-09T01:56:04.547Z,708.26
2016-03-09T01:56:18.610Z,708.23
2016-03-09T01:56:33.454Z,708.33
2016-03-09T01:57:01.005Z,708.28
2016-03-09T01:57:14.848Z,708.3
2016-03-09T01:57:32.317Z,708.23
2016-03-09T01:57:46.598Z,708.29
2016-03-09T01:58:00.880Z,708.31
2016-03-09T01:58:14.916Z,708.27
2016-03-09T01:58:30.058Z,708.22
2016-03-09T01:58:44.173Z,708.24
2016-03-09T01:58:58.300Z,708.33
2016-03-09T01:59:13.239Z,708.28
2016-03-09T01:59:30.520Z,708.31
2016-03-09T01:59:44.571Z,708.34
2016-03-09T01:59:58.415Z,708.33
2016-03-09T02:00:11.730Z,708.32
2016-03-09T02:00:25.824Z,708.29
2016-03-09T02:00:40.668Z,708.12
2016-03-09T02:01:22.932Z,708.14
2016-03-09T02:01:38.149Z,708.26
2016-03-09T02:01:51.852Z,708.21
2016-03-09T02:02:05.777Z,708.32
2016-03-09T02:02:28.793Z,708.25
2016-03-09T02:02:46.074Z,708.28
2016-03-09T02:02:59.857Z,708.22
2016-03-09T02:03:13.654Z,708.09
2016-03-09T02:03:27.654Z,708.33
2016-03-09T02:03:41.779Z,708.19
2016-03-09T02:03:55.811Z,708.17
2016-03-09T02:04:09.329Z,708.2
2016-03-09T02:04:23.189Z,708.35
2016-03-09T02:04:51.642Z,708.26
2016-03-09T02:05:04.848Z,708.26
2016-03-09T02:05:18.270Z,708.1
2016-03-09T02:05:32.192Z,708.31
2016-03-09T02:05:45.676Z,708.09
2016-03-09T02:05:59.160Z,708.11
2016-03-09T02:06:26.995Z,708.17
2016-03-09T02:06:43.948Z,708.18
2016-03-09T02:06:57.855Z,708.13
2016-03-09T02:07:10.937Z,708.21
2016-03-09T02:07:24.812Z,708.23
2016-03-09T02:07:38.562Z,708.29
2016-03-09T02:08:07.939Z,708.26
2016-03-09T02:08:25.548Z,708.28
2016-03-09T02:08:39.361Z,708.06
2016-03-09T02:08:53.283Z,708.2
2016-03-09T02:09:07.661Z,708.25
2016-03-09T02:09:36.401Z,708.16
2016-03-09T02:10:08.293Z,708.17
2016-03-09T02:10:25.886Z,708.13
2016-03-09T02:10:54.402Z,708.19
2016-03-09T02:11:08.923Z,708.26
2016-03-09T02:11:22.877Z,708.26
2016-03-09T02:11:51.049Z,708.3
2016-03-09T02:12:05.005Z,708.32
2016-03-09T02:12:33.427Z,708.21
2016-03-09T02:12:50.366Z,708.24
2016-03-09T02:13:04.462Z,708.21
2016-03-09T02:13:18.821Z,708.26
2016-03-09T02:13:46.837Z,708.18
2016-03-09T02:14:00.793Z,708.24
2016-03-09T02:14:14.511Z,708.4
2016-03-09T02:14:28.871Z,708.26
2016-03-09T02:14:45.496Z,708.2
2016-03-09T02:15:27.749Z,708.15
2016-03-09T02:15:41.686Z,708.26
2016-03-09T02:15:56.343Z,708.3
2016-03-09T02:16:10.891Z,708.2
2016-03-09T02:16:24.735Z,708.17
2016-03-09T02:17:24.349Z,708.18
2016-03-09T02:17:38.255Z,708.28
2016-03-09T02:17:52.145Z,708.22
2016-03-09T02:18:23.069Z,708.26
2016-03-09T02:18:51.835Z,708.3
2016-03-09T02:19:05.838Z,708.22
2016-03-09T02:19:19.385Z,708.19
2016-03-09T02:19:42.604Z,708.2
2016-03-09T02:20:05.246Z,708.25
2016-03-09T02:21:01.249Z,708.17
2016-03-09T02:21:15.062Z,708.21
2016-03-09T02:21:29.062Z,708.22
2016-03-09T02:21:46.093Z,708.19
2016-03-09T02:22:00.096Z,708.14
2016-03-09T02:22:14.690Z,708.26
2016-03-09T02:22:28.596Z,708.15
2016-03-09T02:22:56.612Z,708.2
2016-03-09T02:23:56.473Z,708.18
2016-03-09T02:24:24.648Z,708.3
2016-03-09T02:24:41.648Z,708.08
2016-03-09T02:25:01.807Z,708.19
2016-03-09T02:25:16.198Z,708.21
2016-03-09T02:25:30.385Z,708.25
2016-03-09T02:25:58.260Z,708.12
2016-03-09T02:26:12.372Z,708.1
2016-03-09T02:26:26.278Z,708.01
2016-03-09T02:26:39.840Z,707.94
2016-03-09T02:26:53.622Z,708.02
2016-03-09T02:27:10.578Z,708.08
2016-03-09T02:27:24.953Z,708.05
2016-03-09T02:27:38.593Z,708.03
2016-03-09T02:28:06.424Z,708.12
2016-03-09T02:28:20.596Z,707.97
